sensor_id;sensor_type;location;lat;lon;timestamp;pressure;altitude;pressure_sealevel;temperature;humidity
64189;BME280;50493;50.970;10.082;2023-04-02T00:01:48;98437.88;;;6.05;80.93
64189;BME280;50493;50.970;10.082;2023-04-02T00:04:19;98441.09;;;5.68;82.37
64189;BME280;50493;50.970;10.082;2023-04-02T00:06:53;98440.44;;;6.51;83.30
64189;BME280;50493;50.970;10.082;2023-04-02T00:09:29;98443.00;;;5.58;83.01
64189;BME280;50493;50.970;10.082;2023-04-02T00:11:57;98451.78;;;5.48;85.21
64189;BME280;50493;50.970;10.082;2023-04-02T00:14:27;98448.47;;;5.93;84.88
64189;BME280;50493;50.970;10.082;2023-04-02T00:16:53;98456.78;;;6.10;83.28
64189;BME280;50493;50.970;10.082;2023-04-02T00:19:25;98464.94;;;5.90;83.97
64189;BME280;50493;50.970;10.082;2023-04-02T00:21:55;98460.84;;;6.69;80.13
64189;BME280;50493;50.970;10.082;2023-04-02T00:24:21;98469.22;;;6.84;80.14
64189;BME280;50493;50.970;10.082;2023-04-02T00:26:47;98471.78;;;6.41;78.82
64189;BME280;50493;50.970;10.082;2023-04-02T00:29:14;98485.28;;;6.59;79.79
64189;BME280;50493;50.970;10.082;2023-04-02T00:31:43;98479.66;;;6.81;80.29
64189;BME280;50493;50.970;10.082;2023-04-02T00:34:15;98485.59;;;6.43;78.55
64189;BME280;50493;50.970;10.082;2023-04-02T00:36:42;98490.72;;;6.47;81.44
64189;BME280;50493;50.970;10.082;2023-04-02T00:39:16;98500.13;;;6.05;79.67
64189;BME280;50493;50.970;10.082;2023-04-02T00:41:43;98505.50;;;5.95;80.14
64189;BME280;50493;50.970;10.082;2023-04-02T00:44:11;98498.91;;;6.25;83.38
64189;BME280;50493;50.970;10.082;2023-04-02T00:46:39;98513.97;;;6.04;79.04
64189;BME280;50493;50.970;10.082;2023-04-02T00:49:17;98528.16;;;4.54;84.18
64189;BME280;50493;50.970;10.082;2023-04-02T00:51:47;98525.34;;;4.74;88.58
64189;BME280;50493;50.970;10.082;2023-04-02T00:54:18;98520.63;;;4.32;89.14
64189;BME280;50493;50.970;10.082;2023-04-02T00:56:46;98541.47;;;4.14;90.64
64189;BME280;50493;50.970;10.082;2023-04-02T00:59:18;98540.88;;;3.84;93.43
64189;BME280;50493;50.970;10.082;2023-04-02T01:01:50;98538.19;;;3.95;94.04
64189;BME280;50493;50.970;10.082;2023-04-02T01:04:27;98541.97;;;4.53;86.67
64189;BME280;50493;50.970;10.082;2023-04-02T01:06:53;98565.81;;;5.51;100.00
64189;BME280;50493;50.970;10.082;2023-04-02T01:09:27;98552.91;;;4.78;100.00
64189;BME280;50493;50.970;10.082;2023-04-02T01:12:18;98552.16;;;4.70;100.00
64189;BME280;50493;50.970;10.082;2023-04-02T01:14:53;98576.34;;;4.67;100.00
64189;BME280;50493;50.970;10.082;2023-04-02T01:17:33;98571.38;;;4.42;100.00
64189;BME280;50493;50.970;10.082;2023-04-02T01:20:14;98570.69;;;4.28;100.00
64189;BME280;50493;50.970;10.082;2023-04-02T01:22:50;98578.44;;;4.25;100.00
64189;BME280;50493;50.970;10.082;2023-04-02T01:25:22;98576.25;;;4.73;100.00
64189;BME280;50493;50.970;10.082;2023-04-02T01:27:52;98592.41;;;4.96;99.74
64189;BME280;50493;50.970;10.082;2023-04-02T01:30:22;98590.66;;;4.96;98.21
64189;BME280;50493;50.970;10.082;2023-04-02T01:32:48;98594.94;;;5.00;93.84
64189;BME280;50493;50.970;10.082;2023-04-02T01:35:14;98595.38;;;5.35;93.19
64189;BME280;50493;50.970;10.082;2023-04-02T01:37:42;98601.75;;;5.11;92.40
64189;BME280;50493;50.970;10.082;2023-04-02T01:40:19;98601.06;;;4.95;92.88
64189;BME280;50493;50.970;10.082;2023-04-02T01:42:53;98621.25;;;4.60;91.24
64189;BME280;50493;50.970;10.082;2023-04-02T01:45:23;98621.13;;;4.72;94.04
64189;BME280;50493;50.970;10.082;2023-04-02T01:47:49;98629.97;;;4.53;93.53
64189;BME280;50493;50.970;10.082;2023-04-02T01:50:25;98633.25;;;4.70;93.26
64189;BME280;50493;50.970;10.082;2023-04-02T01:52:56;98633.34;;;4.61;93.17
64189;BME280;50493;50.970;10.082;2023-04-02T01:55:30;98641.06;;;4.64;92.20
64189;BME280;50493;50.970;10.082;2023-04-02T01:57:57;98648.81;;;4.67;93.52
64189;BME280;50493;50.970;10.082;2023-04-02T02:00:26;98660.34;;;4.31;94.45
64189;BME280;50493;50.970;10.082;2023-04-02T02:02:54;98662.78;;;4.48;94.25
64189;BME280;50493;50.970;10.082;2023-04-02T02:05:21;98666.88;;;3.48;98.42
64189;BME280;50493;50.970;10.082;2023-04-02T02:07:47;98674.41;;;3.91;98.09
64189;BME280;50493;50.970;10.082;2023-04-02T02:10:14;98669.63;;;4.55;97.85
64189;BME280;50493;50.970;10.082;2023-04-02T02:12:40;98672.28;;;4.49;95.19
64189;BME280;50493;50.970;10.082;2023-04-02T02:15:13;98689.19;;;3.67;94.24
64189;BME280;50493;50.970;10.082;2023-04-02T02:17:41;98688.53;;;3.10;94.02
64189;BME280;50493;50.970;10.082;2023-04-02T02:20:08;98690.06;;;3.65;100.00
64189;BME280;50493;50.970;10.082;2023-04-02T02:22:36;98704.88;;;3.18;100.00
64189;BME280;50493;50.970;10.082;2023-04-02T02:25:05;98702.13;;;3.63;99.87
64189;BME280;50493;50.970;10.082;2023-04-02T02:27:48;98706.41;;;3.71;97.46
64189;BME280;50493;50.970;10.082;2023-04-02T02:30:21;98711.13;;;4.42;94.66
64189;BME280;50493;50.970;10.082;2023-04-02T02:32:54;98713.78;;;4.35;94.18
64189;BME280;50493;50.970;10.082;2023-04-02T02:35:23;98727.84;;;3.86;93.94
64189;BME280;50493;50.970;10.082;2023-04-02T02:37:55;98736.50;;;3.86;95.89
64189;BME280;50493;50.970;10.082;2023-04-02T02:40:26;98743.19;;;4.18;94.50
64189;BME280;50493;50.970;10.082;2023-04-02T02:42:55;98742.56;;;3.74;93.84
64189;BME280;50493;50.970;10.082;2023-04-02T02:45:25;98749.19;;;4.25;93.98
64189;BME280;50493;50.970;10.082;2023-04-02T02:47:54;98750.84;;;4.41;93.52
64189;BME280;50493;50.970;10.082;2023-04-02T02:50:22;98756.13;;;4.23;91.96
64189;BME280;50493;50.970;10.082;2023-04-02T02:52:51;98756.78;;;4.54;92.68
64189;BME280;50493;50.970;10.082;2023-04-02T02:55:19;98762.28;;;4.05;91.54
64189;BME280;50493;50.970;10.082;2023-04-02T02:57:48;98765.41;;;4.53;92.04
64189;BME280;50493;50.970;10.082;2023-04-02T03:00:15;98769.16;;;4.04;90.31
64189;BME280;50493;50.970;10.082;2023-04-02T03:02:43;98773.13;;;4.61;91.42
64189;BME280;50493;50.970;10.082;2023-04-02T03:05:15;98773.16;;;4.58;90.21
64189;BME280;50493;50.970;10.082;2023-04-02T03:07:42;98776.72;;;4.43;89.48
64189;BME280;50493;50.970;10.082;2023-04-02T03:10:13;98783.84;;;3.96;91.23
64189;BME280;50493;50.970;10.082;2023-04-02T03:12:43;98788.75;;;4.47;91.97
64189;BME280;50493;50.970;10.082;2023-04-02T03:15:15;98800.22;;;4.01;91.21
64189;BME280;50493;50.970;10.082;2023-04-02T03:17:46;98805.22;;;4.29;90.94
64189;BME280;50493;50.970;10.082;2023-04-02T03:20:17;98804.34;;;4.36;91.04
64189;BME280;50493;50.970;10.082;2023-04-02T03:22:47;98817.38;;;4.24;89.09
64189;BME280;50493;50.970;10.082;2023-04-02T03:25:22;98821.47;;;4.56;91.13
64189;BME280;50493;50.970;10.082;2023-04-02T03:27:53;98828.59;;;4.15;88.86
64189;BME280;50493;50.970;10.082;2023-04-02T03:30:27;98834.88;;;3.04;89.10
64189;BME280;50493;50.970;10.082;2023-04-02T03:32:57;98837.44;;;3.51;93.81
64189;BME280;50493;50.970;10.082;2023-04-02T03:35:29;98851.25;;;3.28;90.61
64189;BME280;50493;50.970;10.082;2023-04-02T03:37:59;98856.41;;;3.10;90.56
64189;BME280;50493;50.970;10.082;2023-04-02T03:40:29;98866.69;;;2.94;89.90
64189;BME280;50493;50.970;10.082;2023-04-02T03:43:00;98865.78;;;3.82;92.81
64189;BME280;50493;50.970;10.082;2023-04-02T03:45:31;98863.03;;;4.25;91.75
64189;BME280;50493;50.970;10.082;2023-04-02T03:48:01;98868.34;;;3.94;89.33
64189;BME280;50493;50.970;10.082;2023-04-02T03:50:34;98875.94;;;4.39;89.33
64189;BME280;50493;50.970;10.082;2023-04-02T03:53:02;98886.34;;;4.23;87.26
64189;BME280;50493;50.970;10.082;2023-04-02T03:55:29;98880.28;;;4.29;88.81
64189;BME280;50493;50.970;10.082;2023-04-02T03:58:00;98884.72;;;3.87;90.09
64189;BME280;50493;50.970;10.082;2023-04-02T04:00:32;98887.38;;;3.56;90.42
64189;BME280;50493;50.970;10.082;2023-04-02T04:03:04;98894.31;;;3.29;89.64
64189;BME280;50493;50.970;10.082;2023-04-02T04:05:35;98908.06;;;3.34;90.11
64189;BME280;50493;50.970;10.082;2023-04-02T04:08:04;98897.63;;;4.02;91.14
64189;BME280;50493;50.970;10.082;2023-04-02T04:10:31;98906.94;;;4.45;89.24
64189;BME280;50493;50.970;10.082;2023-04-02T04:13:03;98914.78;;;4.25;89.26
64189;BME280;50493;50.970;10.082;2023-04-02T04:15:32;98925.03;;;4.56;90.47
64189;BME280;50493;50.970;10.082;2023-04-02T04:18:01;98933.81;;;4.08;88.56
64189;BME280;50493;50.970;10.082;2023-04-02T04:20:31;98932.06;;;4.23;88.45
64189;BME280;50493;50.970;10.082;2023-04-02T04:23:10;98945.88;;;4.16;89.18
64189;BME280;50493;50.970;10.082;2023-04-02T04:25:40;98947.66;;;3.73;87.25
64189;BME280;50493;50.970;10.082;2023-04-02T04:28:12;98951.97;;;3.68;87.57
64189;BME280;50493;50.970;10.082;2023-04-02T04:30:48;98953.69;;;3.96;89.31
64189;BME280;50493;50.970;10.082;2023-04-02T04:33:16;98958.81;;;4.19;88.89
64189;BME280;50493;50.970;10.082;2023-04-02T04:35:48;98961.44;;;4.06;87.26
64189;BME280;50493;50.970;10.082;2023-04-02T04:38:18;98962.34;;;3.61;86.16
64189;BME280;50493;50.970;10.082;2023-04-02T04:40:54;98971.78;;;4.00;90.12
64189;BME280;50493;50.970;10.082;2023-04-02T04:43:27;98982.13;;;3.38;86.30
64189;BME280;50493;50.970;10.082;2023-04-02T04:45:57;98983.88;;;3.98;89.02
64189;BME280;50493;50.970;10.082;2023-04-02T04:48:28;98990.72;;;4.12;87.83
64189;BME280;50493;50.970;10.082;2023-04-02T04:50:58;98998.44;;;4.38;87.33
64189;BME280;50493;50.970;10.082;2023-04-02T04:53:28;98995.78;;;4.59;89.09
64189;BME280;50493;50.970;10.082;2023-04-02T04:55:54;99009.69;;;4.20;85.08
64189;BME280;50493;50.970;10.082;2023-04-02T04:58:22;99016.59;;;3.96;85.91
64189;BME280;50493;50.970;10.082;2023-04-02T05:00:55;99018.31;;;4.13;86.38
64189;BME280;50493;50.970;10.082;2023-04-02T05:03:27;99026.94;;;4.12;87.23
64189;BME280;50493;50.970;10.082;2023-04-02T05:06:00;99035.50;;;4.48;85.58
64189;BME280;50493;50.970;10.082;2023-04-02T05:08:32;99037.25;;;4.30;84.50
64189;BME280;50493;50.970;10.082;2023-04-02T05:11:02;99041.59;;;4.00;86.88
64189;BME280;50493;50.970;10.082;2023-04-02T05:13:33;99048.50;;;4.00;87.26
64189;BME280;50493;50.970;10.082;2023-04-02T05:16:05;99054.53;;;3.88;87.46
64189;BME280;50493;50.970;10.082;2023-04-02T05:18:38;99066.56;;;3.64;86.32
64189;BME280;50493;50.970;10.082;2023-04-02T05:21:06;99053.38;;;2.74;86.74
64189;BME280;50493;50.970;10.082;2023-04-02T05:23:43;99074.78;;;2.55;87.97
64189;BME280;50493;50.970;10.082;2023-04-02T05:26:14;99082.25;;;2.15;82.95
64189;BME280;50493;50.970;10.082;2023-04-02T05:28:45;99080.13;;;2.95;87.97
64189;BME280;50493;50.970;10.082;2023-04-02T05:31:15;99087.88;;;2.92;87.06
64189;BME280;50493;50.970;10.082;2023-04-02T05:33:45;99094.72;;;2.79;83.88
64189;BME280;50493;50.970;10.082;2023-04-02T05:36:18;99097.50;;;3.30;84.62
64189;BME280;50493;50.970;10.082;2023-04-02T05:38:46;99102.69;;;3.22;87.24
64189;BME280;50493;50.970;10.082;2023-04-02T05:41:20;99110.38;;;3.15;83.37
64189;BME280;50493;50.970;10.082;2023-04-02T05:43:48;99109.53;;;3.19;84.20
64189;BME280;50493;50.970;10.082;2023-04-02T05:46:17;99112.97;;;3.21;85.38
64189;BME280;50493;50.970;10.082;2023-04-02T05:48:48;99112.28;;;3.74;85.29
64189;BME280;50493;50.970;10.082;2023-04-02T05:51:18;99118.31;;;4.07;85.02
64189;BME280;50493;50.970;10.082;2023-04-02T05:53:49;99126.81;;;3.29;82.72
64189;BME280;50493;50.970;10.082;2023-04-02T05:56:17;99134.72;;;3.97;83.37
64189;BME280;50493;50.970;10.082;2023-04-02T05:58:47;99144.13;;;3.55;83.64
64189;BME280;50493;50.970;10.082;2023-04-02T06:01:31;99145.66;;;3.06;85.34
64189;BME280;50493;50.970;10.082;2023-04-02T06:04:05;99155.63;;;2.55;83.76
64189;BME280;50493;50.970;10.082;2023-04-02T06:06:42;99157.78;;;3.26;85.97
64189;BME280;50493;50.970;10.082;2023-04-02T06:09:14;99157.78;;;3.21;81.98
64189;BME280;50493;50.970;10.082;2023-04-02T06:11:43;99171.50;;;3.13;85.00
64189;BME280;50493;50.970;10.082;2023-04-02T06:14:11;99166.50;;;3.53;85.92
64189;BME280;50493;50.970;10.082;2023-04-02T06:16:38;99179.75;;;2.57;84.19
64189;BME280;50493;50.970;10.082;2023-04-02T06:19:07;99182.03;;;3.65;85.25
64189;BME280;50493;50.970;10.082;2023-04-02T06:21:42;99189.84;;;3.74;82.24
64189;BME280;50493;50.970;10.082;2023-04-02T06:24:12;99200.00;;;3.27;83.83
64189;BME280;50493;50.970;10.082;2023-04-02T06:26:40;99209.44;;;2.14;78.25
64189;BME280;50493;50.970;10.082;2023-04-02T06:29:11;99215.53;;;2.22;82.39
64189;BME280;50493;50.970;10.082;2023-04-02T06:31:43;99210.94;;;2.90;86.87
64189;BME280;50493;50.970;10.082;2023-04-02T06:34:14;99219.88;;;3.48;85.76
64189;BME280;50493;50.970;10.082;2023-04-02T06:36:40;99231.13;;;3.53;85.16
64189;BME280;50493;50.970;10.082;2023-04-02T06:39:08;99237.84;;;3.20;84.92
64189;BME280;50493;50.970;10.082;2023-04-02T06:41:37;99249.03;;;3.25;78.28
64189;BME280;50493;50.970;10.082;2023-04-02T06:44:05;99239.81;;;3.67;82.81
64189;BME280;50493;50.970;10.082;2023-04-02T06:46:33;99257.34;;;2.81;77.94
64189;BME280;50493;50.970;10.082;2023-04-02T06:49:06;99257.56;;;3.09;83.27
64189;BME280;50493;50.970;10.082;2023-04-02T06:51:36;99260.44;;;3.55;81.48
64189;BME280;50493;50.970;10.082;2023-04-02T06:54:02;99269.69;;;3.19;77.83
64189;BME280;50493;50.970;10.082;2023-04-02T06:56:39;99269.88;;;3.48;81.27
64189;BME280;50493;50.970;10.082;2023-04-02T06:59:05;99274.94;;;3.28;79.98
64189;BME280;50493;50.970;10.082;2023-04-02T07:01:35;99278.63;;;3.80;81.92
64189;BME280;50493;50.970;10.082;2023-04-02T07:04:02;99282.81;;;3.53;77.92
64189;BME280;50493;50.970;10.082;2023-04-02T07:06:27;99293.78;;;3.15;77.06
64189;BME280;50493;50.970;10.082;2023-04-02T07:08:52;99294.09;;;3.75;81.49
64189;BME280;50493;50.970;10.082;2023-04-02T07:11:19;99297.56;;;3.72;77.92
64189;BME280;50493;50.970;10.082;2023-04-02T07:13:48;99309.41;;;3.33;79.19
64189;BME280;50493;50.970;10.082;2023-04-02T07:16:15;99322.44;;;2.49;76.78
64189;BME280;50493;50.970;10.082;2023-04-02T07:18:41;99322.47;;;3.56;81.64
64189;BME280;50493;50.970;10.082;2023-04-02T07:21:07;99313.09;;;3.72;81.06
64189;BME280;50493;50.970;10.082;2023-04-02T07:23:33;99323.25;;;3.42;80.99
64189;BME280;50493;50.970;10.082;2023-04-02T07:25:58;99330.16;;;3.49;76.75
64189;BME280;50493;50.970;10.082;2023-04-02T07:28:26;99333.03;;;2.77;76.45
64189;BME280;50493;50.970;10.082;2023-04-02T07:30:54;99344.50;;;3.05;78.05
64189;BME280;50493;50.970;10.082;2023-04-02T07:33:22;99356.31;;;2.81;80.81
64189;BME280;50493;50.970;10.082;2023-04-02T07:35:48;99354.13;;;3.23;76.09
64189;BME280;50493;50.970;10.082;2023-04-02T07:38:13;99356.28;;;2.80;78.49
64189;BME280;50493;50.970;10.082;2023-04-02T07:40:38;99360.41;;;3.64;80.81
64189;BME280;50493;50.970;10.082;2023-04-02T07:43:05;99375.00;;;3.51;79.32
64189;BME280;50493;50.970;10.082;2023-04-02T07:45:30;99385.13;;;1.72;75.30
64189;BME280;50493;50.970;10.082;2023-04-02T07:47:57;99393.75;;;2.44;75.32
64189;BME280;50493;50.970;10.082;2023-04-02T07:50:22;99390.81;;;2.93;81.53
64189;BME280;50493;50.970;10.082;2023-04-02T07:52:48;99385.34;;;3.51;76.25
64189;BME280;50493;50.970;10.082;2023-04-02T07:55:14;99402.53;;;3.49;78.70
64189;BME280;50493;50.970;10.082;2023-04-02T07:57:47;99402.44;;;3.33;69.31
64189;BME280;50493;50.970;10.082;2023-04-02T08:00:14;99401.97;;;3.98;78.91
64189;BME280;50493;50.970;10.082;2023-04-02T08:02:40;99408.56;;;3.48;71.13
64189;BME280;50493;50.970;10.082;2023-04-02T08:05:08;99424.22;;;2.72;76.93
64189;BME280;50493;50.970;10.082;2023-04-02T08:07:34;99425.38;;;2.24;74.55
64189;BME280;50493;50.970;10.082;2023-04-02T08:10:00;99427.69;;;2.76;81.48
64189;BME280;50493;50.970;10.082;2023-04-02T08:12:26;99438.03;;;2.07;74.63
64189;BME280;50493;50.970;10.082;2023-04-02T08:14:51;99443.72;;;2.49;81.76
64189;BME280;50493;50.970;10.082;2023-04-02T08:17:16;99444.53;;;3.24;80.64
64189;BME280;50493;50.970;10.082;2023-04-02T08:19:42;99449.28;;;2.84;72.60
64189;BME280;50493;50.970;10.082;2023-04-02T08:22:10;99463.41;;;2.40;72.89
64189;BME280;50493;50.970;10.082;2023-04-02T08:24:35;99459.59;;;2.83;78.79
64189;BME280;50493;50.970;10.082;2023-04-02T08:27:01;99462.69;;;3.31;78.36
64189;BME280;50493;50.970;10.082;2023-04-02T08:29:26;99469.94;;;3.75;76.94
64189;BME280;50493;50.970;10.082;2023-04-02T08:31:56;99476.00;;;2.88;76.51
64189;BME280;50493;50.970;10.082;2023-04-02T08:34:22;99483.84;;;2.96;74.01
64189;BME280;50493;50.970;10.082;2023-04-02T08:36:47;99484.84;;;3.09;71.55
64189;BME280;50493;50.970;10.082;2023-04-02T08:39:14;99494.63;;;2.62;78.87
64189;BME280;50493;50.970;10.082;2023-04-02T08:41:44;99501.72;;;2.79;82.64
64189;BME280;50493;50.970;10.082;2023-04-02T08:44:19;99498.75;;;2.49;75.63
64189;BME280;50493;50.970;10.082;2023-04-02T08:46:49;99507.00;;;2.91;77.50
64189;BME280;50493;50.970;10.082;2023-04-02T08:49:19;99516.50;;;2.26;76.39
64189;BME280;50493;50.970;10.082;2023-04-02T08:51:49;99515.03;;;2.44;76.92
64189;BME280;50493;50.970;10.082;2023-04-02T08:54:23;99524.91;;;2.74;79.29
64189;BME280;50493;50.970;10.082;2023-04-02T08:56:51;99529.59;;;2.38;80.67
64189;BME280;50493;50.970;10.082;2023-04-02T08:59:24;99536.94;;;1.57;79.47
64189;BME280;50493;50.970;10.082;2023-04-02T09:01:59;99540.34;;;2.71;77.90
64189;BME280;50493;50.970;10.082;2023-04-02T09:04:26;99545.72;;;2.86;81.06
64189;BME280;50493;50.970;10.082;2023-04-02T09:06:54;99550.00;;;2.86;79.52
64189;BME280;50493;50.970;10.082;2023-04-02T09:09:22;99545.59;;;2.77;79.91
64189;BME280;50493;50.970;10.082;2023-04-02T09:11:52;99557.09;;;2.36;79.69
64189;BME280;50493;50.970;10.082;2023-04-02T09:14:20;99553.34;;;2.79;74.30
64189;BME280;50493;50.970;10.082;2023-04-02T09:16:50;99563.50;;;2.63;80.41
64189;BME280;50493;50.970;10.082;2023-04-02T09:19:19;99565.97;;;2.59;82.04
64189;BME280;50493;50.970;10.082;2023-04-02T09:21:50;99562.13;;;2.29;73.52
64189;BME280;50493;50.970;10.082;2023-04-02T09:24:17;99581.44;;;2.57;80.17
64189;BME280;50493;50.970;10.082;2023-04-02T09:26:45;99585.31;;;2.27;76.02
64189;BME280;50493;50.970;10.082;2023-04-02T09:29:25;99585.75;;;1.49;78.50
64189;BME280;50493;50.970;10.082;2023-04-02T09:32:00;99586.63;;;2.02;74.38
64189;BME280;50493;50.970;10.082;2023-04-02T09:34:28;99589.72;;;2.96;78.21
64189;BME280;50493;50.970;10.082;2023-04-02T09:36:54;99596.25;;;3.35;77.11
64189;BME280;50493;50.970;10.082;2023-04-02T09:39:21;99597.53;;;2.99;72.07
64189;BME280;50493;50.970;10.082;2023-04-02T09:41:48;99597.53;;;2.37;71.33
64189;BME280;50493;50.970;10.082;2023-04-02T09:44:21;99606.06;;;2.96;71.67
64189;BME280;50493;50.970;10.082;2023-04-02T09:46:48;99614.75;;;2.98;69.51
64189;BME280;50493;50.970;10.082;2023-04-02T09:49:16;99615.84;;;3.17;69.46
64189;BME280;50493;50.970;10.082;2023-04-02T09:51:42;99620.69;;;2.94;72.52
64189;BME280;50493;50.970;10.082;2023-04-02T09:54:13;99627.91;;;2.55;78.76
64189;BME280;50493;50.970;10.082;2023-04-02T09:56:39;99639.63;;;2.35;72.52
64189;BME280;50493;50.970;10.082;2023-04-02T09:59:23;99647.91;;;2.70;78.67
64189;BME280;50493;50.970;10.082;2023-04-02T10:01:56;99649.00;;;1.79;72.31
64189;BME280;50493;50.970;10.082;2023-04-02T10:04:34;99649.16;;;2.40;83.40
64189;BME280;50493;50.970;10.082;2023-04-02T10:07:00;99647.88;;;2.14;74.54
64189;BME280;50493;50.970;10.082;2023-04-02T10:09:29;99661.09;;;1.82;73.14
64189;BME280;50493;50.970;10.082;2023-04-02T10:11:57;99645.63;;;1.82;83.24
64189;BME280;50493;50.970;10.082;2023-04-02T10:14:27;99670.56;;;0.97;74.88
64189;BME280;50493;50.970;10.082;2023-04-02T10:16:57;99665.19;;;1.72;78.09
64189;BME280;50493;50.970;10.082;2023-04-02T10:19:27;99673.78;;;1.71;73.64
64189;BME280;50493;50.970;10.082;2023-04-02T10:21:53;99669.63;;;1.79;76.64
64189;BME280;50493;50.970;10.082;2023-04-02T10:24:19;99662.47;;;1.63;73.08
64189;BME280;50493;50.970;10.082;2023-04-02T10:26:52;99676.97;;;1.58;73.37
64189;BME280;50493;50.970;10.082;2023-04-02T10:29:33;99665.88;;;2.11;77.90
64189;BME280;50493;50.970;10.082;2023-04-02T10:32:05;99681.75;;;1.83;72.61
64189;BME280;50493;50.970;10.082;2023-04-02T10:34:38;99675.00;;;2.44;76.10
64189;BME280;50493;50.970;10.082;2023-04-02T10:37:19;99685.34;;;2.45;80.75
64189;BME280;50493;50.970;10.082;2023-04-02T10:39:54;99686.97;;;2.95;80.26
64189;BME280;50493;50.970;10.082;2023-04-02T10:42:25;99705.22;;;2.00;72.17
64189;BME280;50493;50.970;10.082;2023-04-02T10:44:54;99695.91;;;2.59;71.27
64189;BME280;50493;50.970;10.082;2023-04-02T10:47:32;99701.50;;;2.87;70.77
64189;BME280;50493;50.970;10.082;2023-04-02T10:50:22;99706.00;;;2.99;71.57
64189;BME280;50493;50.970;10.082;2023-04-02T10:52:56;99713.59;;;2.91;71.16
64189;BME280;50493;50.970;10.082;2023-04-02T10:55:25;99715.63;;;3.09;67.94
64189;BME280;50493;50.970;10.082;2023-04-02T10:57:53;99713.22;;;3.21;69.63
64189;BME280;50493;50.970;10.082;2023-04-02T11:00:24;99730.53;;;3.30;74.62
64189;BME280;50493;50.970;10.082;2023-04-02T11:02:55;99734.06;;;2.79;72.48
64189;BME280;50493;50.970;10.082;2023-04-02T11:05:27;99732.41;;;3.40;73.29
64189;BME280;50493;50.970;10.082;2023-04-02T11:08:01;99736.72;;;3.42;72.99
64189;BME280;50493;50.970;10.082;2023-04-02T11:10:30;99732.94;;;3.85;68.05
64189;BME280;50493;50.970;10.082;2023-04-02T11:13:01;99738.28;;;3.30;63.74
64189;BME280;50493;50.970;10.082;2023-04-02T11:15:30;99746.84;;;3.26;67.46
64189;BME280;50493;50.970;10.082;2023-04-02T11:17:56;99744.13;;;3.15;69.98
64189;BME280;50493;50.970;10.082;2023-04-02T11:23:21;99764.22;;;1.82;72.04
64189;BME280;50493;50.970;10.082;2023-04-02T11:25:50;99769.41;;;2.29;70.38
64189;BME280;50493;50.970;10.082;2023-04-02T11:28:25;99769.78;;;2.03;72.54
64189;BME280;50493;50.970;10.082;2023-04-02T11:30:54;99775.59;;;2.39;77.41
64189;BME280;50493;50.970;10.082;2023-04-02T11:33:37;99772.16;;;2.92;70.83
64189;BME280;50493;50.970;10.082;2023-04-02T11:36:07;99776.31;;;3.37;74.89
64189;BME280;50493;50.970;10.082;2023-04-02T11:38:51;99782.81;;;2.13;66.02
64189;BME280;50493;50.970;10.082;2023-04-02T11:44:21;99781.38;;;2.78;77.47
64189;BME280;50493;50.970;10.082;2023-04-02T11:46:49;99788.00;;;3.14;67.67
64189;BME280;50493;50.970;10.082;2023-04-02T11:49:35;99799.09;;;2.56;65.27
64189;BME280;50493;50.970;10.082;2023-04-02T11:52:01;99799.41;;;2.74;64.04
64189;BME280;50493;50.970;10.082;2023-04-02T11:54:36;99805.03;;;2.04;68.65
64189;BME280;50493;50.970;10.082;2023-04-02T11:57:08;99806.81;;;2.09;67.95
64189;BME280;50493;50.970;10.082;2023-04-02T11:59:43;99807.22;;;2.30;69.20
64189;BME280;50493;50.970;10.082;2023-04-02T12:02:18;99812.16;;;2.18;65.49
64189;BME280;50493;50.970;10.082;2023-04-02T12:05:07;99808.06;;;2.77;77.95
64189;BME280;50493;50.970;10.082;2023-04-02T12:07:44;99816.25;;;3.61;71.54
64189;BME280;50493;50.970;10.082;2023-04-02T12:10:18;99816.78;;;4.04;71.57
64189;BME280;50493;50.970;10.082;2023-04-02T12:12:44;99815.19;;;2.90;61.11
64189;BME280;50493;50.970;10.082;2023-04-02T12:15:31;99824.47;;;3.32;74.60
64189;BME280;50493;50.970;10.082;2023-04-02T12:18:04;99823.00;;;3.50;67.44
64189;BME280;50493;50.970;10.082;2023-04-02T12:20:31;99831.97;;;2.66;65.49
64189;BME280;50493;50.970;10.082;2023-04-02T12:22:57;99829.50;;;3.23;63.09
64189;BME280;50493;50.970;10.082;2023-04-02T12:25:26;99836.44;;;3.27;64.27
64189;BME280;50493;50.970;10.082;2023-04-02T12:28:05;99835.19;;;3.02;62.84
64189;BME280;50493;50.970;10.082;2023-04-02T12:30:32;99836.44;;;3.26;67.91
64189;BME280;50493;50.970;10.082;2023-04-02T12:33:13;99843.97;;;3.71;59.89
64189;BME280;50493;50.970;10.082;2023-04-02T12:35:39;99844.81;;;3.12;65.12
64189;BME280;50493;50.970;10.082;2023-04-02T12:38:17;99864.34;;;3.48;59.24
64189;BME280;50493;50.970;10.082;2023-04-02T12:40:50;99850.81;;;3.10;71.90
64189;BME280;50493;50.970;10.082;2023-04-02T12:43:22;99853.88;;;3.40;65.48
64189;BME280;50493;50.970;10.082;2023-04-02T12:45:50;99869.47;;;2.46;64.17
64189;BME280;50493;50.970;10.082;2023-04-02T12:48:17;99862.13;;;3.18;66.79
64189;BME280;50493;50.970;10.082;2023-04-02T12:50:43;99861.53;;;3.36;58.00
64189;BME280;50493;50.970;10.082;2023-04-02T12:53:18;99854.03;;;4.16;57.16
64189;BME280;50493;50.970;10.082;2023-04-02T12:55:45;99863.09;;;3.24;59.35
64189;BME280;50493;50.970;10.082;2023-04-02T12:58:28;99860.38;;;3.15;63.50
64189;BME280;50493;50.970;10.082;2023-04-02T13:01:14;99862.25;;;3.24;61.25
64189;BME280;50493;50.970;10.082;2023-04-02T13:03:43;99865.19;;;3.49;59.59
64189;BME280;50493;50.970;10.082;2023-04-02T13:06:23;99866.41;;;3.72;66.80
64189;BME280;50493;50.970;10.082;2023-04-02T13:08:49;99867.88;;;3.55;73.20
64189;BME280;50493;50.970;10.082;2023-04-02T13:11:15;99861.19;;;3.13;60.18
64189;BME280;50493;50.970;10.082;2023-04-02T13:13:42;99870.47;;;4.21;67.67
64189;BME280;50493;50.970;10.082;2023-04-02T13:16:24;99867.34;;;4.48;70.11
64189;BME280;50493;50.970;10.082;2023-04-02T13:19:08;99869.94;;;4.50;61.23
64189;BME280;50493;50.970;10.082;2023-04-02T13:21:34;99870.13;;;3.93;59.68
64189;BME280;50493;50.970;10.082;2023-04-02T13:23:59;99872.31;;;4.31;70.61